createdAt,value
2018-05-14T00:00:42.021Z,1007.07
2018-05-14T00:01:51.195Z,1007.06
2018-05-14T00:03:00.379Z,1007.06
2018-05-14T00:04:09.813Z,1007.03
2018-05-14T00:05:19.301Z,1006.97
2018-05-14T00:06:29.001Z,1007.03
2018-05-14T00:07:38.143Z,1006.98
2018-05-14T00:08:47.595Z,1006.94
2018-05-14T00:09:56.848Z,1006.94
2018-05-14T00:11:05.743Z,1006.94
2018-05-14T00:12:15.296Z,1006.93
2018-05-14T00:13:24.556Z,1006.88
2018-05-14T00:14:34.098Z,1006.88
2018-05-14T00:15:43.803Z,1006.85
2018-05-14T00:16:53.035Z,1006.86
2018-05-14T00:18:02.032Z,1006.92
2018-05-14T00:19:11.463Z,1006.92
2018-05-14T00:20:20.655Z,1006.9
2018-05-14T00:21:29.347Z,1006.9
2018-05-14T00:22:38.508Z,1006.88
2018-05-14T00:23:47.419Z,1006.87
2018-05-14T00:24:56.592Z,1006.87
2018-05-14T00:26:05.760Z,1006.86
2018-05-14T00:27:15.213Z,1006.84
2018-05-14T00:28:24.898Z,1006.86
2018-05-14T00:29:34.873Z,1006.87
2018-05-14T00:30:44.570Z,1006.83
2018-05-14T00:31:54.520Z,1006.81
2018-05-14T00:33:04.302Z,1006.77
2018-05-14T00:34:13.468Z,1006.79
2018-05-14T00:35:22.420Z,1006.8
2018-05-14T00:36:31.638Z,1006.8
2018-05-14T00:37:40.554Z,1006.79
2018-05-14T00:38:50.514Z,1006.75
2018-05-14T00:39:59.672Z,1006.73
2018-05-14T00:41:08.915Z,1006.76
2018-05-14T00:42:18.629Z,1006.75
2018-05-14T00:43:28.295Z,1006.75
2018-05-14T00:44:37.453Z,1006.66
2018-05-14T00:45:47.434Z,1006.59
2018-05-14T00:46:56.880Z,1006.63
2018-05-14T00:48:06.844Z,1006.63
2018-05-14T00:49:16.018Z,1006.64
2018-05-14T00:50:25.870Z,1006.63
2018-05-14T00:51:35.051Z,1006.66
2018-05-14T00:52:44.987Z,1006.66
2018-05-14T00:53:53.940Z,1006.72
2018-05-14T00:55:03.157Z,1006.7
2018-05-14T00:56:12.334Z,1006.66
2018-05-14T00:57:22.127Z,1006.67
2018-05-14T00:58:31.849Z,1006.65
2018-05-14T00:59:41.038Z,1006.58
2018-05-14T01:00:50.569Z,1006.6
2018-05-14T01:01:59.999Z,1006.6
2018-05-14T01:03:09.472Z,1006.57
2018-05-14T01:04:18.907Z,1006.62
2018-05-14T01:05:28.369Z,1006.58
2018-05-14T01:06:38.060Z,1006.58
2018-05-14T01:07:48.272Z,1006.59
2018-05-14T01:08:57.716Z,1006.6
2018-05-14T01:10:06.920Z,1006.58
2018-05-14T01:11:16.141Z,1006.56
2018-05-14T01:12:25.573Z,1006.58
2018-05-14T01:13:34.739Z,1006.57
2018-05-14T01:14:43.946Z,1006.58
2018-05-14T01:15:53.122Z,1006.56
2018-05-14T01:17:02.416Z,1006.54
2018-05-14T01:18:11.630Z,1006.51
2018-05-14T01:19:21.295Z,1006.52
2018-05-14T01:20:30.494Z,1006.49
2018-05-14T01:21:39.967Z,1006.49
2018-05-14T01:22:49.414Z,1006.45
2018-05-14T01:23:59.128Z,1006.44
2018-05-14T01:25:08.308Z,1006.49
2018-05-14T01:26:17.719Z,1006.48
2018-05-14T01:27:27.183Z,1006.48
2018-05-14T01:28:36.614Z,1006.52
2018-05-14T01:29:45.797Z,1006.47
2018-05-14T01:30:55.478Z,1006.53
2018-05-14T01:32:04.940Z,1006.53
2018-05-14T01:33:14.106Z,1006.53
2018-05-14T01:34:23.778Z,1006.55
2018-05-14T01:35:33.516Z,1006.51
2018-05-14T01:36:42.730Z,1006.52
2018-05-14T01:37:51.909Z,1006.53
2018-05-14T01:39:01.358Z,1006.5
2018-05-14T01:40:11.035Z,1006.45
2018-05-14T01:41:20.524Z,1006.48
2018-05-14T01:42:29.951Z,1006.45
2018-05-14T01:43:39.377Z,1006.45
2018-05-14T01:44:49.095Z,1006.44
2018-05-14T01:45:58.518Z,1006.39
2018-05-14T01:47:08.223Z,1006.38
2018-05-14T01:48:17.631Z,1006.39
2018-05-14T01:49:27.628Z,1006.36
2018-05-14T01:50:37.337Z,1006.36
2018-05-14T01:51:47.295Z,1006.31
2018-05-14T01:52:56.993Z,1006.32
2018-05-14T01:54:06.727Z,1006.35
2018-05-14T01:55:15.904Z,1006.36
2018-05-14T01:56:25.110Z,1006.36
2018-05-14T01:57:34.278Z,1006.34
2018-05-14T01:58:43.191Z,1006.38
2018-05-14T01:59:52.633Z,1006.41
2018-05-14T02:01:02.333Z,1006.42
2018-05-14T02:02:11.530Z,1006.46
2018-05-14T02:03:20.692Z,1006.48
2018-05-14T02:04:30.387Z,1006.5
2018-05-14T02:05:40.072Z,1006.46
2018-05-14T02:06:49.519Z,1006.49
2018-05-14T02:07:59.037Z,1006.46
2018-05-14T02:09:08.735Z,1006.47
2018-05-14T02:10:18.164Z,1006.45
2018-05-14T02:11:27.876Z,1006.44
2018-05-14T02:12:37.291Z,1006.46
2018-05-14T02:13:46.989Z,1006.45
2018-05-14T02:14:56.514Z,1006.42
2018-05-14T02:16:05.947Z,1006.37
2018-05-14T02:17:15.398Z,1006.41
2018-05-14T02:18:25.081Z,1006.35
2018-05-14T02:19:34.265Z,1006.37
2018-05-14T02:20:43.711Z,1006.34
2018-05-14T02:21:52.886Z,1006.28
2018-05-14T02:23:02.093Z,1006.27
2018-05-14T02:24:11.789Z,1006.28
2018-05-14T02:25:21.248Z,1006.22
2018-05-14T02:26:30.953Z,1006.19
2018-05-14T02:27:40.132Z,1006.18
2018-05-14T02:28:49.814Z,1006.2
2018-05-14T02:29:59.241Z,1006.22
2018-05-14T02:31:08.170Z,1006.21
2018-05-14T02:32:17.398Z,1006.2
2018-05-14T02:33:26.834Z,1006.29
2018-05-14T02:34:35.789Z,1006.29
2018-05-14T02:35:45.466Z,1006.28
2018-05-14T02:36:55.172Z,1006.35
2018-05-14T02:38:04.385Z,1006.38
2018-05-14T02:39:14.064Z,1006.37
2018-05-14T02:40:23.492Z,1006.38
2018-05-14T02:41:33.433Z,1006.38
2018-05-14T02:42:42.860Z,1006.39
2018-05-14T02:43:52.298Z,1006.39
2018-05-14T02:45:02.005Z,1006.4
2018-05-14T02:46:10.913Z,1006.41
2018-05-14T02:47:20.621Z,1006.41
2018-05-14T02:48:30.586Z,1006.44
2018-05-14T02:49:40.398Z,1006.42
2018-05-14T02:50:49.827Z,1006.38
2018-05-14T02:51:59.289Z,1006.4
2018-05-14T02:53:08.819Z,1006.36
2018-05-14T02:54:18.796Z,1006.34
2018-05-14T02:55:27.979Z,1006.34
2018-05-14T02:56:37.413Z,1006.35
2018-05-14T02:57:47.127Z,1006.35
2018-05-14T02:58:56.609Z,1006.33
2018-05-14T03:00:06.316Z,1006.36
2018-05-14T03:01:15.771Z,1006.37
2018-05-14T03:02:25.500Z,1006.36
2018-05-14T03:03:35.187Z,1006.33
2018-05-14T03:04:44.931Z,1006.32
2018-05-14T03:05:54.609Z,1006.3
2018-05-14T03:07:04.309Z,1006.27
2018-05-14T03:08:14.079Z,1006.28
2018-05-14T03:09:24.054Z,1006.27
2018-05-14T03:10:33.656Z,1006.33
2018-05-14T03:11:42.960Z,1006.29
2018-05-14T03:12:52.387Z,1006.3
2018-05-14T03:14:01.853Z,1006.25
2018-05-14T03:15:10.763Z,1006.22
2018-05-14T03:16:20.735Z,1006.22
2018-05-14T03:17:29.651Z,1006.21
2018-05-14T03:18:38.904Z,1006.22
2018-05-14T03:19:48.376Z,1006.25
2018-05-14T03:20:58.079Z,1006.28
2018-05-14T03:22:07.268Z,1006.28
2018-05-14T03:23:16.447Z,1006.26
2018-05-14T03:24:25.855Z,1006.3
2018-05-14T03:25:35.582Z,1006.19
2018-05-14T03:26:44.747Z,1006.22
2018-05-14T03:27:54.214Z,1006.22
2018-05-14T03:29:03.102Z,1006.26
2018-05-14T03:30:12.769Z,1006.22
2018-05-14T03:31:22.465Z,1006.17
2018-05-14T03:32:32.401Z,1006.22
2018-05-14T03:33:41.877Z,1006.17
2018-05-14T03:34:51.320Z,1006.19
2018-05-14T03:36:00.489Z,1006.12
2018-05-14T03:37:09.921Z,1006.16
2018-05-14T03:38:19.389Z,1006.14
2018-05-14T03:39:29.127Z,1006.13
2018-05-14T03:40:38.039Z,1006.09
2018-05-14T03:41:47.346Z,1006.07
2018-05-14T03:42:57.029Z,1006.09
2018-05-14T03:44:06.709Z,1006.14
2018-05-14T03:45:16.155Z,1006.11
2018-05-14T03:46:25.646Z,1006.11
2018-05-14T03:47:34.797Z,1006.11
2018-05-14T03:48:44.219Z,1006.08
2018-05-14T03:49:53.644Z,1006.06
2018-05-14T03:51:02.813Z,1006.06
2018-05-14T03:52:11.986Z,1006.06
2018-05-14T03:53:21.488Z,1006.05
2018-05-14T03:54:30.921Z,1006.06
2018-05-14T03:55:40.888Z,1006.04
2018-05-14T03:56:50.662Z,1005.95
2018-05-14T03:58:00.026Z,1005.92
2018-05-14T03:59:09.200Z,1005.96
2018-05-14T04:00:18.869Z,1005.9
2018-05-14T04:01:28.590Z,1005.93
2018-05-14T04:02:37.761Z,1005.93
2018-05-14T04:03:47.185Z,1005.93
2018-05-14T04:04:57.045Z,1005.95
2018-05-14T04:06:06.224Z,1005.95
2018-05-14T04:07:15.406Z,1005.96
2018-05-14T04:08:25.139Z,1005.94
2018-05-14T04:09:35.161Z,1005.94
2018-05-14T04:10:44.589Z,1006.05
2018-05-14T04:11:54.028Z,1006.01
2018-05-14T04:13:03.534Z,1006.03
2018-05-14T04:14:12.695Z,1006
2018-05-14T04:15:22.390Z,1006.01
2018-05-14T04:16:31.912Z,1005.98
2018-05-14T04:17:41.686Z,1005.99
2018-05-14T04:18:51.217Z,1006.01
2018-05-14T04:20:00.383Z,1006.05
2018-05-14T04:21:10.045Z,1006.05
2018-05-14T04:22:20.010Z,1006.06
2018-05-14T04:23:29.459Z,1006.06
2018-05-14T04:24:39.166Z,1006.05
2018-05-14T04:25:48.585Z,1006.09
2018-05-14T04:26:58.026Z,1006.14
2018-05-14T04:28:07.291Z,1006.12
2018-05-14T04:29:16.700Z,1006.15
2018-05-14T04:30:25.890Z,1006.16
2018-05-14T04:31:35.577Z,1006.14
2018-05-14T04:32:45.035Z,1006.15
2018-05-14T04:33:53.977Z,1006.12
2018-05-14T04:35:02.691Z,1006.15
2018-05-14T04:36:13.100Z,1006.06
2018-05-14T04:37:22.581Z,1006.13
2018-05-14T04:38:32.018Z,1006.1
2018-05-14T04:39:41.239Z,1006.14
2018-05-14T04:40:50.908Z,1006.11
2018-05-14T04:42:00.588Z,1006.08
2018-05-14T04:43:10.016Z,1006.07
2018-05-14T04:44:19.972Z,1006.06
2018-05-14T04:45:29.662Z,1006.08
2018-05-14T04:46:38.999Z,1006.1
2018-05-14T04:47:48.688Z,1006.08
2018-05-14T04:48:58.687Z,1006.02
2018-05-14T04:50:08.387Z,1005.99
2018-05-14T04:51:18.126Z,1005.98
2018-05-14T04:52:27.619Z,1006.03
2018-05-14T04:53:37.545Z,1005.96
2018-05-14T04:54:46.798Z,1005.99
2018-05-14T04:55:56.292Z,1005.97
2018-05-14T04:57:05.487Z,1005.93
2018-05-14T04:58:14.946Z,1006.02
2018-05-14T04:59:24.123Z,1006
2018-05-14T05:00:34.266Z,1006
2018-05-14T05:01:44.234Z,1006.05
2018-05-14T05:02:53.395Z,1006.05
2018-05-14T05:04:03.393Z,1006.03
2018-05-14T05:05:12.564Z,1006.11
2018-05-14T05:06:22.256Z,1006.07
2018-05-14T05:07:31.690Z,1006.14
2018-05-14T05:08:40.854Z,1006.18
2018-05-14T05:09:50.547Z,1006.15
2018-05-14T05:11:00.263Z,1006.14
2018-05-14T05:12:09.447Z,1006.16
2018-05-14T05:13:19.134Z,1006.16
2018-05-14T05:14:28.562Z,1006.16
2018-05-14T05:15:38.004Z,1006.12
2018-05-14T05:16:47.460Z,1006.15
2018-05-14T05:17:56.614Z,1006.19
2018-05-14T05:19:06.043Z,1006.2
2018-05-14T05:20:15.493Z,1006.22
2018-05-14T05:21:24.692Z,1006.2
2018-05-14T05:22:33.910Z,1006.21
2018-05-14T05:23:43.995Z,1006.21
2018-05-14T05:24:53.692Z,1006.17
2018-05-14T05:26:03.382Z,1006.14
2018-05-14T05:27:12.840Z,1006.07
2018-05-14T05:28:22.358Z,1006.14
2018-05-14T05:29:32.486Z,1006.15
2018-05-14T05:30:42.154Z,1006.13
2018-05-14T05:31:51.342Z,1006.15
2018-05-14T05:33:01.328Z,1006.13
2018-05-14T05:34:10.876Z,1006.13
2018-05-14T05:35:20.074Z,1006.08
2018-05-14T05:36:29.259Z,1006.09
2018-05-14T05:37:38.768Z,1006.1
2018-05-14T05:38:48.739Z,1006.07
2018-05-14T05:39:58.209Z,1006.11
2018-05-14T05:41:07.625Z,1006.1
2018-05-14T05:42:17.085Z,1006.09
2018-05-14T05:43:26.525Z,1006.06
2018-05-14T05:44:35.959Z,1006.07
2018-05-14T05:45:45.400Z,1006.08
2018-05-14T05:46:54.587Z,1006.04
2018-05-14T05:48:03.573Z,1006.07
2018-05-14T05:49:13.028Z,1006.06
2018-05-14T05:50:22.225Z,1006.06
2018-05-14T05:51:31.157Z,1006.11
2018-05-14T05:52:40.583Z,1006.09
2018-05-14T05:53:49.739Z,1006.06
2018-05-14T05:54:58.646Z,1006.1
2018-05-14T05:56:07.540Z,1006.11
2018-05-14T05:57:17.262Z,1006.11
2018-05-14T05:58:27.228Z,1006.11
2018-05-14T05:59:36.932Z,1006.13
2018-05-14T06:00:45.937Z,1006.09
2018-05-14T06:01:54.852Z,1006.08
2018-05-14T06:03:04.305Z,1006.08
2018-05-14T06:04:13.735Z,1006.07
2018-05-14T06:05:23.421Z,1006.07
2018-05-14T06:06:32.951Z,1006.07
2018-05-14T06:07:42.110Z,1006.05
2018-05-14T06:08:51.822Z,1006
2018-05-14T06:10:00.761Z,1006.04
2018-05-14T06:11:10.259Z,1006.06
2018-05-14T06:12:20.087Z,1006.06
2018-05-14T06:13:29.506Z,1006.05
2018-05-14T06:14:38.962Z,1006.07
2018-05-14T06:15:48.417Z,1006.06
2018-05-14T06:16:57.595Z,1006.06
2018-05-14T06:18:06.797Z,1006.07
2018-05-14T06:19:16.252Z,1006.11
2018-05-14T06:20:24.927Z,1006.13
2018-05-14T06:21:34.357Z,1006.17
2018-05-14T06:22:43.804Z,1006.22
2018-05-14T06:23:52.979Z,1006.22
2018-05-14T06:25:02.426Z,1006.3
2018-05-14T06:26:11.862Z,1006.34
2018-05-14T06:27:21.816Z,1006.29
2018-05-14T06:28:31.509Z,1006.31
2018-05-14T06:29:40.706Z,1006.34
2018-05-14T06:30:50.168Z,1006.34
2018-05-14T06:31:59.861Z,1006.31
2018-05-14T06:33:08.526Z,1006.27
2018-05-14T06:34:17.490Z,1006.28
2018-05-14T06:35:26.789Z,1006.24
2018-05-14T06:36:36.742Z,1006.29
2018-05-14T06:37:46.471Z,1006.29
2018-05-14T06:38:56.193Z,1006.32
2018-05-14T06:40:05.635Z,1006.37
2018-05-14T06:41:14.828Z,1006.38
2018-05-14T06:42:24.260Z,1006.46
2018-05-14T06:43:33.711Z,1006.4
2018-05-14T06:44:42.908Z,1006.39
2018-05-14T06:45:52.078Z,1006.4
2018-05-14T06:47:02.023Z,1006.39
2018-05-14T06:48:11.270Z,1006.34
2018-05-14T06:49:20.186Z,1006.42
2018-05-14T06:50:29.640Z,1006.39
2018-05-14T06:51:38.694Z,1006.41
2018-05-14T06:52:47.624Z,1006.42
2018-05-14T06:53:56.783Z,1006.39
2018-05-14T06:55:06.049Z,1006.36
2018-05-14T06:56:15.899Z,1006.41
2018-05-14T06:57:25.637Z,1006.38
2018-05-14T06:58:35.068Z,1006.39
2018-05-14T06:59:44.753Z,1006.36
2018-05-14T07:00:54.212Z,1006.37
2018-05-14T07:02:03.641Z,1006.37
2018-05-14T07:03:12.953Z,1006.39
2018-05-14T07:04:22.691Z,1006.42
2018-05-14T07:05:31.869Z,1006.41
2018-05-14T07:06:40.788Z,1006.41
2018-05-14T07:07:49.443Z,1006.46
2018-05-14T07:08:59.410Z,1006.43
2018-05-14T07:10:08.615Z,1006.48
2018-05-14T07:11:17.844Z,1006.54
2018-05-14T07:12:27.409Z,1006.62
2018-05-14T07:13:36.581Z,1006.6
2018-05-14T07:14:45.746Z,1006.68
2018-05-14T07:15:55.440Z,1006.65
2018-05-14T07:17:05.372Z,1006.63
2018-05-14T07:18:15.741Z,1006.61
2018-05-14T07:19:25.794Z,1006.57
2018-05-14T07:20:34.878Z,1006.58
2018-05-14T07:21:44.414Z,1006.57
2018-05-14T07:22:53.840Z,1006.55
2018-05-14T07:24:03.206Z,1006.55
2018-05-14T07:25:11.941Z,1006.53
2018-05-14T07:26:21.357Z,1006.54
2018-05-14T07:27:31.039Z,1006.56
2018-05-14T07:28:41.001Z,1006.58
2018-05-14T07:29:49.974Z,1006.58
2018-05-14T07:30:59.898Z,1006.57
2018-05-14T07:32:09.061Z,1006.53
2018-05-14T07:33:17.988Z,1006.52
2018-05-14T07:34:27.351Z,1006.57
2018-05-14T07:35:36.775Z,1006.56
2018-05-14T07:36:45.682Z,1006.56
2018-05-14T07:37:55.357Z,1006.53
2018-05-14T07:39:04.022Z,1006.55
2018-05-14T07:40:13.692Z,1006.57
2018-05-14T07:41:23.697Z,1006.55
2018-05-14T07:42:33.114Z,1006.54
2018-05-14T07:43:42.981Z,1006.61
2018-05-14T07:44:52.412Z,1006.55
2018-05-14T07:46:01.844Z,1006.56
2018-05-14T07:47:11.840Z,1006.59
2018-05-14T07:48:21.028Z,1006.52
2018-05-14T07:49:30.193Z,1006.56
2018-05-14T07:50:39.626Z,1006.63
2018-05-14T07:51:48.798Z,1006.58
2018-05-14T07:52:58.224Z,1006.58
2018-05-14T07:54:07.653Z,1006.54
2018-05-14T07:55:17.086Z,1006.56
2018-05-14T07:56:26.507Z,1006.59
2018-05-14T07:57:36.467Z,1006.57
2018-05-14T07:58:45.650Z,1006.62
2018-05-14T07:59:55.114Z,1006.66
2018-05-14T08:01:04.505Z,1006.65
2018-05-14T08:02:13.961Z,1006.68
2018-05-14T08:03:23.668Z,1006.64
2018-05-14T08:04:32.591Z,1006.67
2018-05-14T08:05:42.159Z,1006.63
2018-05-14T08:06:52.308Z,1006.64
2018-05-14T08:08:02.661Z,1006.64
2018-05-14T08:09:12.089Z,1006.61
2018-05-14T08:10:21.530Z,1006.61
2018-05-14T08:11:30.286Z,1006.61
2018-05-14T08:12:40.404Z,1006.54
2018-05-14T08:13:50.111Z,1006.54
2018-05-14T08:14:59.552Z,1006.51
2018-05-14T08:16:08.980Z,1006.53
2018-05-14T08:17:18.671Z,1006.47
2018-05-14T08:18:28.341Z,1006.51
2018-05-14T08:19:37.865Z,1006.59
2018-05-14T08:20:47.832Z,1006.56
2018-05-14T08:21:57.535Z,1006.5
2018-05-14T08:23:07.245Z,1006.48
2018-05-14T08:24:16.416Z,1006.52
2018-05-14T08:25:25.848Z,1006.52
2018-05-14T08:26:35.609Z,1006.52
2018-05-14T08:27:45.079Z,1006.5
2018-05-14T08:28:54.790Z,1006.49
2018-05-14T08:30:04.259Z,1006.5
2018-05-14T08:31:13.937Z,1006.51
2018-05-14T08:32:23.521Z,1006.51
2018-05-14T08:33:32.455Z,1006.48
2018-05-14T08:34:42.159Z,1006.48
2018-05-14T08:35:51.602Z,1006.5
2018-05-14T08:37:01.351Z,1006.46
2018-05-14T08:38:11.094Z,1006.45
2018-05-14T08:39:20.280Z,1006.48
2018-05-14T08:40:30.227Z,1006.45
2018-05-14T08:41:39.936Z,1006.46
2018-05-14T08:42:49.843Z,1006.47
2018-05-14T08:43:59.962Z,1006.49
2018-05-14T08:45:09.805Z,1006.47
2018-05-14T08:46:19.740Z,1006.48
2018-05-14T08:47:28.667Z,1006.47
2018-05-14T08:48:38.216Z,1006.52
2018-05-14T08:49:47.137Z,1006.52
2018-05-14T08:50:56.070Z,1006.52
2018-05-14T08:52:05.758Z,1006.52
2018-05-14T08:53:15.189Z,1006.53
2018-05-14T08:54:24.805Z,1006.57
2018-05-14T08:55:34.683Z,1006.5
2018-05-14T08:56:43.900Z,1006.53
2018-05-14T08:57:53.087Z,1006.48
2018-05-14T08:59:02.508Z,1006.48
2018-05-14T09:00:11.696Z,1006.45
2018-05-14T09:01:20.873Z,1006.41
2018-05-14T09:02:30.043Z,1006.41
2018-05-14T09:03:39.468Z,1006.42
2018-05-14T09:04:48.623Z,1006.39
2018-05-14T09:05:58.051Z,1006.43
2018-05-14T09:07:06.732Z,1006.41
2018-05-14T09:08:16.437Z,1006.41
2018-05-14T09:09:25.627Z,1006.43
2018-05-14T09:10:35.322Z,1006.42
2018-05-14T09:11:44.782Z,1006.47
2018-05-14T09:12:54.229Z,1006.44
2018-05-14T09:14:03.455Z,1006.47
2018-05-14T09:15:12.619Z,1006.47
2018-05-14T09:16:22.306Z,1006.52
2018-05-14T09:17:31.994Z,1006.52
2018-05-14T09:18:41.933Z,1006.51
2018-05-14T09:19:51.362Z,1006.5
2018-05-14T09:21:01.048Z,1006.5
2018-05-14T09:22:10.575Z,1006.53
2018-05-14T09:23:19.756Z,1006.49
2018-05-14T09:24:29.457Z,1006.49
2018-05-14T09:25:39.134Z,1006.52
2018-05-14T09:26:48.595Z,1006.57
2018-05-14T09:27:58.030Z,1006.57
2018-05-14T09:29:07.733Z,1006.59
2018-05-14T09:30:17.441Z,1006.57
2018-05-14T09:31:27.128Z,1006.59
2018-05-14T09:32:36.810Z,1006.57
2018-05-14T09:33:46.243Z,1006.54
2018-05-14T09:34:55.991Z,1006.56
2018-05-14T09:36:05.419Z,1006.5
2018-05-14T09:37:14.846Z,1006.51
2018-05-14T09:38:24.383Z,1006.52
2018-05-14T09:39:33.829Z,1006.54
2018-05-14T09:40:43.517Z,1006.5
2018-05-14T09:41:53.006Z,1006.5
2018-05-14T09:43:02.952Z,1006.46
2018-05-14T09:44:12.663Z,1006.5
2018-05-14T09:45:22.353Z,1006.51
2018-05-14T09:46:31.780Z,1006.49
2018-05-14T09:47:40.936Z,1006.51
2018-05-14T09:48:50.637Z,1006.52
2018-05-14T09:50:00.340Z,1006.5
2018-05-14T09:51:09.840Z,1006.49
2018-05-14T09:52:19.021Z,1006.45
2018-05-14T09:53:28.619Z,1006.46
2018-05-14T09:54:38.343Z,1006.49
2018-05-14T09:55:47.771Z,1006.45
2018-05-14T09:56:57.207Z,1006.46
2018-05-14T09:58:06.404Z,1006.44
2018-05-14T09:59:16.083Z,1006.45
2018-05-14T10:00:25.285Z,1006.4
2018-05-14T10:01:34.462Z,1006.42
2018-05-14T10:02:43.384Z,1006.47
2018-05-14T10:03:52.294Z,1006.42
2018-05-14T10:05:02.301Z,1006.37
2018-05-14T10:06:12.015Z,1006.44
2018-05-14T10:07:21.477Z,1006.41
2018-05-14T10:08:30.905Z,1006.42
2018-05-14T10:09:40.062Z,1006.43
2018-05-14T10:10:49.522Z,1006.44
2018-05-14T10:11:58.442Z,1006.47
2018-05-14T10:13:07.599Z,1006.39
2018-05-14T10:14:17.035Z,1006.43
2018-05-14T10:15:26.208Z,1006.43
2018-05-14T10:16:35.924Z,1006.43
2018-05-14T10:17:45.109Z,1006.41
2018-05-14T10:18:54.914Z,1006.38
2018-05-14T10:20:04.015Z,1006.35
2018-05-14T10:21:12.917Z,1006.34
2018-05-14T10:22:21.830Z,1006.35
2018-05-14T10:23:31.274Z,1006.32
2018-05-14T10:24:41.250Z,1006.34
2018-05-14T10:25:51.315Z,1006.36
2018-05-14T10:27:01.037Z,1006.38
2018-05-14T10:28:09.952Z,1006.35
2018-05-14T10:29:19.136Z,1006.4
2018-05-14T10:30:28.487Z,1006.39
2018-05-14T10:31:38.216Z,1006.35
2018-05-14T10:32:47.139Z,1006.39
2018-05-14T10:33:56.562Z,1006.34
2018-05-14T10:35:06.047Z,1006.41
2018-05-14T10:36:15.462Z,1006.42
2018-05-14T10:37:25.144Z,1006.37
2018-05-14T10:38:34.839Z,1006.34
2018-05-14T10:39:43.757Z,1006.34
2018-05-14T10:40:52.699Z,1006.31
2018-05-14T10:42:02.186Z,1006.35
2018-05-14T10:43:11.618Z,1006.37
2018-05-14T10:44:20.797Z,1006.4
2018-05-14T10:45:30.256Z,1006.35
2018-05-14T10:46:39.424Z,1006.4
2018-05-14T10:47:49.038Z,1006.35
2018-05-14T10:48:58.468Z,1006.37
2018-05-14T10:50:07.369Z,1006.34
2018-05-14T10:51:16.792Z,1006.33
2018-05-14T10:52:25.996Z,1006.31
2018-05-14T10:53:35.161Z,1006.32
2018-05-14T10:54:44.068Z,1006.32
2018-05-14T10:55:53.778Z,1006.33
2018-05-14T10:57:02.966Z,1006.3
2018-05-14T10:58:12.647Z,1006.38
2018-05-14T10:59:22.595Z,1006.38
2018-05-14T11:00:32.047Z,1006.43
2018-05-14T11:01:41.474Z,1006.38
2018-05-14T11:02:50.630Z,1006.42
2018-05-14T11:04:00.350Z,1006.41
2018-05-14T11:05:09.862Z,1006.31
2018-05-14T11:06:18.775Z,1006.34
2018-05-14T11:07:28.232Z,1006.31
2018-05-14T11:08:37.402Z,1006.32
2018-05-14T11:09:46.831Z,1006.29
2018-05-14T11:10:56.794Z,1006.23
2018-05-14T11:12:06.242Z,1006.26
2018-05-14T11:13:15.673Z,1006.21
2018-05-14T11:14:25.352Z,1006.17
2018-05-14T11:15:34.784Z,1006.18
2018-05-14T11:16:43.957Z,1006.2
2018-05-14T11:17:53.413Z,1006.22
2018-05-14T11:19:02.605Z,1006.16
2018-05-14T11:20:12.035Z,1006.21
2018-05-14T11:21:21.731Z,1006.2
2018-05-14T11:22:31.838Z,1006.28
2018-05-14T11:23:40.749Z,1006.28
2018-05-14T11:24:50.428Z,1006.24
2018-05-14T11:26:00.123Z,1006.2
2018-05-14T11:27:10.085Z,1006.26
2018-05-14T11:28:19.279Z,1006.22
2018-05-14T11:29:28.974Z,1006.23
2018-05-14T11:30:38.463Z,1006.2
2018-05-14T11:31:47.641Z,1006.27
2018-05-14T11:32:56.821Z,1006.26
2018-05-14T11:34:05.732Z,1006.28
2018-05-14T11:35:14.931Z,1006.32
2018-05-14T11:36:25.151Z,1006.23
2018-05-14T11:37:34.630Z,1006.28
2018-05-14T11:38:44.050Z,1006.22
2018-05-14T11:39:53.765Z,1006.25
2018-05-14T11:41:03.730Z,1006.27
2018-05-14T11:42:13.421Z,1006.27
2018-05-14T11:43:22.870Z,1006.3
2018-05-14T11:44:32.279Z,1006.28
2018-05-14T11:45:41.686Z,1006.24
2018-05-14T11:46:51.387Z,1006.2
2018-05-14T11:48:00.810Z,1006.21
2018-05-14T11:49:10.292Z,1006.2
2018-05-14T11:50:19.740Z,1006.22
2018-05-14T11:51:29.205Z,1006.18
2018-05-14T11:52:38.711Z,1006.21
2018-05-14T11:53:47.515Z,1006.16
2018-05-14T11:54:56.977Z,1006.16
2018-05-14T11:56:06.422Z,1006.2
2018-05-14T11:57:15.966Z,1006.21
2018-05-14T11:58:25.657Z,1006.16
2018-05-14T11:59:35.345Z,1006.17
2018-05-14T12:00:45.023Z,1006.2
2018-05-14T12:01:54.448Z,1006.21
2018-05-14T12:03:03.712Z,1006.15
2018-05-14T12:04:13.365Z,1006.21
2018-05-14T12:05:22.871Z,1006.19
2018-05-14T12:06:32.591Z,1006.18
2018-05-14T12:07:42.041Z,1006.15
2018-05-14T12:08:51.024Z,1006.17
2018-05-14T12:10:00.534Z,1006.19
2018-05-14T12:11:10.431Z,1006.19
2018-05-14T12:12:19.862Z,1006.19
2018-05-14T12:13:29.017Z,1006.15
2018-05-14T12:14:39.017Z,1006.11
2018-05-14T12:15:48.466Z,1006.13
2018-05-14T12:16:58.387Z,1006.12
2018-05-14T12:18:08.202Z,1006.09
2018-05-14T12:19:18.528Z,1006.15
2018-05-14T12:20:28.236Z,1006.09
2018-05-14T12:21:37.690Z,1006.07
2018-05-14T12:22:47.370Z,1006.07
2018-05-14T12:23:56.564Z,1006.06
2018-05-14T12:25:05.750Z,1006.11
2018-05-14T12:26:14.921Z,1006.08
2018-05-14T12:27:24.374Z,1006.07
2018-05-14T12:28:33.799Z,1006.08
2018-05-14T12:29:43.243Z,1006.07
2018-05-14T12:30:52.147Z,1006.1
2018-05-14T12:32:01.324Z,1006.12
2018-05-14T12:33:11.597Z,1006.15
2018-05-14T12:34:21.011Z,1006.15
2018-05-14T12:35:30.532Z,1006.09
2018-05-14T12:36:40.224Z,1006.07
2018-05-14T12:37:49.658Z,1006.06
2018-05-14T12:38:59.420Z,1006.08
2018-05-14T12:40:08.868Z,1006.02
2018-05-14T12:41:18.544Z,1006.05
2018-05-14T12:42:27.193Z,1006.05
2018-05-14T12:43:36.607Z,1006.04
2018-05-14T12:44:46.286Z,1006.06
2018-05-14T12:45:55.437Z,1006.01
2018-05-14T12:47:04.980Z,1006.02
2018-05-14T12:48:14.407Z,1006
2018-05-14T12:49:23.823Z,1005.98
2018-05-14T12:50:32.480Z,1005.93
2018-05-14T12:51:41.663Z,1005.88
2018-05-14T12:52:51.483Z,1005.89
2018-05-14T12:54:00.918Z,1005.93
2018-05-14T12:55:10.595Z,1005.92
2018-05-14T12:56:20.271Z,1005.93
2018-05-14T12:57:29.458Z,1005.88
2018-05-14T12:58:38.614Z,1005.86
2018-05-14T12:59:47.787Z,1005.88
2018-05-14T13:00:57.224Z,1005.86
2018-05-14T13:02:06.146Z,1005.92
2018-05-14T13:03:15.851Z,1005.9
2018-05-14T13:04:25.064Z,1005.82
2018-05-14T13:05:33.984Z,1005.76
2018-05-14T13:06:43.144Z,1005.77
2018-05-14T13:07:52.411Z,1005.8
2018-05-14T13:09:01.560Z,1005.79
2018-05-14T13:10:10.996Z,1005.87
2018-05-14T13:11:20.155Z,1005.84
2018-05-14T13:12:29.321Z,1005.92
2018-05-14T13:13:38.248Z,1005.92
2018-05-14T13:14:47.928Z,1005.96
2018-05-14T13:15:57.099Z,1005.91
2018-05-14T13:17:06.251Z,1005.93
2018-05-14T13:18:15.676Z,1005.84
2018-05-14T13:19:25.088Z,1005.86
2018-05-14T13:20:34.613Z,1005.87
2018-05-14T13:21:43.791Z,1005.93
2018-05-14T13:22:53.261Z,1005.93
2018-05-14T13:24:02.943Z,1005.98
2018-05-14T13:25:12.145Z,1005.87
2018-05-14T13:26:22.129Z,1005.93
2018-05-14T13:27:31.557Z,1005.93
2018-05-14T13:28:41.235Z,1005.96
2018-05-14T13:29:50.919Z,1005.95
2018-05-14T13:31:00.608Z,1005.98
2018-05-14T13:32:10.102Z,1005.96
2018-05-14T13:33:20.007Z,1005.93
2018-05-14T13:34:29.424Z,1005.91
2018-05-14T13:35:38.898Z,1005.93
2018-05-14T13:36:48.593Z,1005.94
2018-05-14T13:37:58.682Z,1005.84
2018-05-14T13:39:08.978Z,1005.87
2018-05-14T13:40:18.160Z,1005.83
2018-05-14T13:41:27.577Z,1005.81
2018-05-14T13:42:37.267Z,1005.79
2018-05-14T13:43:46.744Z,1005.81
2018-05-14T13:44:55.904Z,1005.81
2018-05-14T13:46:05.340Z,1005.84
2018-05-14T13:47:15.282Z,1005.86
2018-05-14T13:48:24.438Z,1005.73
2018-05-14T13:49:33.598Z,1005.71
2018-05-14T13:50:42.749Z,1005.78
2018-05-14T13:51:52.494Z,1005.66
2018-05-14T13:53:01.922Z,1005.69
2018-05-14T13:54:11.619Z,1005.75
2018-05-14T13:55:21.064Z,1005.69
2018-05-14T13:56:30.758Z,1005.69
2018-05-14T13:57:39.914Z,1005.68
2018-05-14T13:58:49.623Z,1005.72
2018-05-14T13:59:58.785Z,1005.71
2018-05-14T14:01:08.183Z,1005.69
2018-05-14T14:02:17.362Z,1005.69
2018-05-14T14:03:26.548Z,1005.68